Main page
METAR-TAF:

METAR-TAF

Airports :

Shenzhen Bao'an International Airport

Shenzhen, China

latitude: 22-33N, longitude: 114-06E, elevation: 18 m

Current weather observation

The report was made 43 minutes ago, at 05:00 UTC
Wind 14 kt from the North/Northeast, varying between North/Northwest and Northeast
Temperature 15°C
Humidity 51%
Pressure 1017 hPa
Visibility 10 km or more
Few clouds at a height of 3300 ft

METAR: ZGSZ 270500Z 02007MPS 340V040 9999 FEW033 15/05 Q1017 NOSIG

Time: 13:43 (05:43 UTC)

Forecast

The report was made 2 hours and 36 minutes ago, at 03:07 UTC
Forecast valid from 27 at 06 UTC to 28 at 06 UTC
Wind 12 kt from the North/Northeast
Visibility: 8000 m
Few clouds at a height of 3000 ft

TAF: ZGSZ 270307Z 2706/2806 02006MPS 8000 FEW030 TX17/2806Z TN10/2722Z

Weather observations and forecasts of more than 4000 airports (METAR and TAF reports).

The available stations are represented by yellow and red dots on the map.

Hover mouse over dot to see the name of the station.

Then click to see weather observations and forecasts.

To change the map : click on the green buttons with a black cross to zoom in, on the green button with a dash to zoom out, or on the green arrows for adjacent maps.


METAR-TAF: